Flight Track Log - Related Links

Times and Time Zones

All times are in EDT time to prevent confusion due to time zone crossing. See the GAO2724 flight status page for this flight to view local times or setup timezone preferences in your user account.

Time Position Orientation Groundspeed Altitude Reporting Facility
EDT Latitude Longitude Course Direction KTS MPH feet Rate Location/Type
Mon 08:13:00 AM 59.8953 19.0529 66° East  Level Estimated
Mon 08:14:00 AM 59.9250 19.1959 67° East  Level Estimated
Mon 08:15:00 AM 59.9546 19.3391 68° East  Level Estimated
Mon 08:16:00 AM 59.9841 19.4825 68° East  Level Estimated
Mon 08:17:00 AM 60.0133 19.6262 68° East  Level Estimated
Mon 08:18:00 AM 60.0424 19.7702 68° East  Level Estimated
Mon 08:19:00 AM 60.0714 19.9144 68° East  Level Estimated
Mon 08:20:00 AM 60.1002 20.0589 68° East  Level Estimated
Mon 08:21:00 AM 60.1288 20.2036 68° East  Level Estimated
Mon 08:22:00 AM 60.1573 20.3486 68° East  Level Estimated
Mon 08:23:00 AM 60.1856 20.4938 69° East  Level Estimated
Mon 08:24:00 AM 60.2138 20.6393 69° East  Level Estimated
Mon 08:25:00 AM 60.2418 20.7850 69° East  Level Estimated
Mon 08:26:00 AM 60.2696 20.9310 69° East  Level Estimated
Mon 08:27:00 AM 60.2973 21.0772 69° East  Level Estimated
Mon 08:28:00 AM 60.3248 21.2237 69° East  Level Estimated
Mon 08:29:00 AM 60.3522 21.3704 69° East  Level Estimated
Mon 08:30:00 AM 60.3794 21.5174 69° East  Level Estimated
Mon 08:31:00 AM 60.4064 21.6646 70° East  Level Estimated
Mon 08:32:00 AM 60.4333 21.8120 70° East  Level Estimated
Mon 08:33:00 AM 60.4600 21.9597 70° East  Level Estimated
Mon 08:34:00 AM 60.4865 22.1077 70° East  Level Estimated
Mon 08:35:00 AM 60.5129 22.2558 70° East  Level Estimated
Mon 08:36:00 AM 60.5141 22.2628 70° East  Level Estimated
Mon 08:37:00 AM 60.5141 22.2628 334° Northwest  Level Estimated
Mon 08:38:00 AM 60.5141 22.2628 334° Northwest  Level Estimated
Mon 08:39:00 AM 60.5141 22.2628 334° Northwest  Level Estimated

Login

Don't have an account? Register now (free) for customized features, flight alerts, and more!